sensor_id;sensor_type;location;lat;lon;timestamp;pressure;altitude;pressure_sealevel;temperature;humidity
47104;BME280;32853;52.164;5.400;2023-09-07T05:31:02;101918.00;;;21.25;100.00
47104;BME280;32853;52.164;5.400;2023-09-07T05:33:28;101914.97;;;21.31;100.00
47104;BME280;32853;52.164;5.400;2023-09-07T05:36:02;101916.25;;;21.38;100.00
47104;BME280;32853;52.164;5.400;2023-09-07T05:38:28;101888.84;;;21.10;100.00
47104;BME280;32853;52.164;5.400;2023-09-07T05:41:10;101919.00;;;21.36;100.00
47104;BME280;32853;52.164;5.400;2023-09-07T05:43:35;101854.06;;;20.74;100.00
47104;BME280;32853;52.164;5.400;2023-09-07T05:46:01;101666.47;;;19.78;100.00
47104;BME280;32853;52.164;5.400;2023-09-07T05:48:37;101929.88;;;21.33;100.00
47104;BME280;32853;52.164;5.400;2023-09-07T05:51:08;101928.81;;;21.36;100.00
47104;BME280;32853;52.164;5.400;2023-09-07T05:53:46;101831.63;;;20.78;100.00
47104;BME280;32853;52.164;5.400;2023-09-07T05:56:18;101922.41;;;21.38;100.00
47104;BME280;32853;52.164;5.400;2023-09-07T05:58:50;101710.84;;;20.02;100.00
47104;BME280;32853;52.164;5.400;2023-09-07T06:01:17;101649.13;;;19.72;100.00
47104;BME280;32853;52.164;5.400;2023-09-07T06:03:44;101913.88;;;21.21;100.00
47104;BME280;32853;52.164;5.400;2023-09-07T06:06:10;101722.56;;;20.13;100.00
47104;BME280;32853;52.164;5.400;2023-09-07T06:08:35;101786.69;;;20.48;100.00
47104;BME280;32853;52.164;5.400;2023-09-07T06:11:04;101796.50;;;20.60;100.00
47104;BME280;32853;52.164;5.400;2023-09-07T06:13:33;101948.22;;;21.51;100.00
47104;BME280;32853;52.164;5.400;2023-09-07T06:16:14;101658.63;;;19.62;100.00
47104;BME280;32853;52.164;5.400;2023-09-07T06:18:48;101666.25;;;19.81;100.00
47104;BME280;32853;52.164;5.400;2023-09-07T06:21:14;101962.38;;;21.51;100.00
47104;BME280;32853;52.164;5.400;2023-09-07T06:23:52;101729.78;;;20.11;100.00
47104;BME280;32853;52.164;5.400;2023-09-07T06:26:17;101948.88;;;21.54;100.00
47104;BME280;32853;52.164;5.400;2023-09-07T06:28:46;101879.16;;;21.09;100.00
47104;BME280;32853;52.164;5.400;2023-09-07T06:31:11;101927.34;;;21.44;100.00
47104;BME280;32853;52.164;5.400;2023-09-07T06:33:43;101794.47;;;20.51;100.00
47104;BME280;32853;52.164;5.400;2023-09-07T06:36:10;101881.78;;;20.97;100.00
47104;BME280;32853;52.164;5.400;2023-09-07T06:38:35;101773.34;;;20.62;100.00
47104;BME280;32853;52.164;5.400;2023-09-07T06:41:03;101688.91;;;20.26;100.00
47104;BME280;32853;52.164;5.400;2023-09-07T06:43:29;101767.34;;;20.58;100.00
47104;BME280;32853;52.164;5.400;2023-09-07T06:46:02;101788.13;;;20.66;100.00
47104;BME280;32853;52.164;5.400;2023-09-07T06:48:27;101866.75;;;21.35;100.00
47104;BME280;32853;52.164;5.400;2023-09-07T06:50:53;101859.63;;;21.49;100.00
47104;BME280;32853;52.164;5.400;2023-09-07T06:53:20;101793.81;;;21.12;100.00
47104;BME280;32853;52.164;5.400;2023-09-07T06:55:56;101954.19;;;22.30;100.00
47104;BME280;32853;52.164;5.400;2023-09-07T06:58:35;101964.47;;;22.48;100.00
47104;BME280;32853;52.164;5.400;2023-09-07T07:21:57;101699.66;;;21.28;100.00
47104;BME280;32853;52.164;5.400;2023-09-07T07:24:26;101792.47;;;22.07;100.00
47104;BME280;32853;52.164;5.400;2023-09-07T07:27:01;101979.72;;;23.19;100.00
47104;BME280;32853;52.164;5.400;2023-09-07T07:29:28;101985.97;;;23.07;100.00
47104;BME280;32853;52.164;5.400;2023-09-07T07:31:54;101885.09;;;22.88;100.00
47104;BME280;32853;52.164;5.400;2023-09-07T07:34:23;101968.41;;;23.51;100.00
47104;BME280;32853;52.164;5.400;2023-09-07T07:36:54;101744.28;;;22.10;100.00
47104;BME280;32853;52.164;5.400;2023-09-07T07:39:19;101965.38;;;23.55;100.00
47104;BME280;32853;52.164;5.400;2023-09-07T07:41:45;101696.69;;;22.17;100.00
47104;BME280;32853;52.164;5.400;2023-09-07T07:44:14;101881.66;;;23.10;100.00
47104;BME280;32853;52.164;5.400;2023-09-07T07:46:40;101801.38;;;22.78;100.00
47104;BME280;32853;52.164;5.400;2023-09-07T07:49:15;101958.78;;;23.94;100.00
47104;BME280;32853;52.164;5.400;2023-09-07T07:51:45;101767.66;;;22.77;100.00
47104;BME280;32853;52.164;5.400;2023-09-07T07:54:11;101862.13;;;23.67;100.00
47104;BME280;32853;52.164;5.400;2023-09-07T07:56:51;101876.44;;;23.66;100.00
47104;BME280;32853;52.164;5.400;2023-09-07T07:59:17;101950.53;;;24.20;100.00
47104;BME280;32853;52.164;5.400;2023-09-07T08:01:42;101827.41;;;23.67;100.00
47104;BME280;32853;52.164;5.400;2023-09-07T08:11:03;101810.97;;;23.94;100.00
47104;BME280;32853;52.164;5.400;2023-09-07T08:13:45;101886.03;;;24.68;100.00
47104;BME280;32853;52.164;5.400;2023-09-07T08:16:12;101943.38;;;24.86;99.06
47104;BME280;32853;52.164;5.400;2023-09-07T08:18:43;101778.38;;;24.11;99.42
47104;BME280;32853;52.164;5.400;2023-09-07T08:21:17;101892.41;;;24.87;99.08
47104;BME280;32853;52.164;5.400;2023-09-07T08:23:43;101864.28;;;24.93;97.99
47104;BME280;32853;52.164;5.400;2023-09-07T08:26:12;101688.53;;;23.99;96.24
47104;BME280;32853;52.164;5.400;2023-09-07T08:28:42;101777.34;;;24.67;93.78
47104;BME280;32853;52.164;5.400;2023-09-07T08:31:29;101690.84;;;24.36;93.54
47104;BME280;32853;52.164;5.400;2023-09-07T08:34:14;101840.50;;;25.11;91.92
47104;BME280;32853;52.164;5.400;2023-09-07T08:39:28;101928.84;;;26.04;92.19
47104;BME280;32853;52.164;5.400;2023-09-07T08:42:15;101923.03;;;26.29;90.47
47104;BME280;32853;52.164;5.400;2023-09-07T08:45:13;101725.81;;;25.06;87.36
47104;BME280;32853;52.164;5.400;2023-09-07T08:47:59;101943.28;;;26.43;88.79
47104;BME280;32853;52.164;5.400;2023-09-07T08:50:34;101913.63;;;26.54;87.80
47104;BME280;32853;52.164;5.400;2023-09-07T08:53:08;101731.69;;;25.31;83.89
47104;BME280;32853;52.164;5.400;2023-09-07T08:55:37;101724.81;;;25.47;82.70
47104;BME280;32853;52.164;5.400;2023-09-07T08:58:11;101675.75;;;25.28;82.57
47104;BME280;32853;52.164;5.400;2023-09-07T09:00:42;101767.72;;;25.97;82.27
47104;BME280;32853;52.164;5.400;2023-09-07T09:03:09;101784.81;;;26.25;83.13
47104;BME280;32853;52.164;5.400;2023-09-07T09:06:01;101898.41;;;27.23;80.34
47104;BME280;32853;52.164;5.400;2023-09-07T09:08:28;101813.91;;;26.88;78.17
47104;BME280;32853;52.164;5.400;2023-09-07T09:11:01;101640.03;;;25.77;76.43
47104;BME280;32853;52.164;5.400;2023-09-07T09:13:32;101691.53;;;26.19;74.72
47104;BME280;32853;52.164;5.400;2023-09-07T11:16:06;101625.19;;;30.80;47.69
47104;BME280;32853;52.164;5.400;2023-09-07T11:18:36;101645.72;;;31.06;48.46
47104;BME280;32853;52.164;5.400;2023-09-07T11:21:01;101773.44;;;31.86;47.06
47104;BME280;32853;52.164;5.400;2023-09-07T11:23:39;101872.84;;;32.54;46.73
47104;BME280;32853;52.164;5.400;2023-09-07T11:26:24;101607.94;;;30.98;45.84
47104;BME280;32853;52.164;5.400;2023-09-07T11:39:23;101829.22;;;32.49;45.23
47104;BME280;32853;52.164;5.400;2023-09-07T11:42:01;101683.75;;;31.74;44.62
47104;BME280;32853;52.164;5.400;2023-09-07T11:44:42;101597.16;;;31.29;44.55
47104;BME280;32853;52.164;5.400;2023-09-07T11:53:08;101601.25;;;31.47;43.45
47104;BME280;32853;52.164;5.400;2023-09-07T11:55:47;101579.78;;;31.69;44.39
47104;BME280;32853;52.164;5.400;2023-09-07T11:58:18;101629.16;;;31.94;44.34
47104;BME280;32853;52.164;5.400;2023-09-07T14:34:05;101711.81;;;35.30;37.51
47104;BME280;32853;52.164;5.400;2023-09-07T14:36:31;101683.03;;;35.48;37.61
47104;BME280;32853;52.164;5.400;2023-09-07T14:38:57;101691.19;;;35.48;38.37
47104;BME280;32853;52.164;5.400;2023-09-07T14:41:23;101698.56;;;35.20;37.81
47104;BME280;32853;52.164;5.400;2023-09-07T14:43:48;101699.16;;;35.57;38.09
47104;BME280;32853;52.164;5.400;2023-09-07T14:46:28;101693.69;;;35.57;37.35
47104;BME280;32853;52.164;5.400;2023-09-07T14:48:54;101705.00;;;35.54;37.81
47104;BME280;32853;52.164;5.400;2023-09-07T14:51:19;101686.16;;;35.52;38.82
47104;BME280;32853;52.164;5.400;2023-09-07T14:53:48;101709.63;;;35.53;38.34
47104;BME280;32853;52.164;5.400;2023-09-07T14:56:24;101691.63;;;35.52;39.13
47104;BME280;32853;52.164;5.400;2023-09-07T14:58:49;101713.63;;;35.64;38.86
47104;BME280;32853;52.164;5.400;2023-09-07T15:01:15;101537.72;;;34.69;39.63
47104;BME280;32853;52.164;5.400;2023-09-07T15:03:49;101705.03;;;35.67;39.15
47104;BME280;32853;52.164;5.400;2023-09-07T15:06:21;101704.22;;;35.73;39.18
47104;BME280;32853;52.164;5.400;2023-09-07T15:08:46;101701.50;;;35.73;38.76
47104;BME280;32853;52.164;5.400;2023-09-07T15:11:12;101671.34;;;35.61;38.58
47104;BME280;32853;52.164;5.400;2023-09-07T15:13:39;101697.09;;;35.78;38.48
47104;BME280;32853;52.164;5.400;2023-09-07T15:16:04;101697.34;;;35.84;38.73
47104;BME280;32853;52.164;5.400;2023-09-07T15:18:30;101483.00;;;33.68;38.81
47104;BME280;32853;52.164;5.400;2023-09-07T15:20:55;101697.66;;;35.41;39.33
47104;BME280;32853;52.164;5.400;2023-09-07T15:23:21;101683.06;;;35.14;39.56
47104;BME280;32853;52.164;5.400;2023-09-07T15:25:47;101583.78;;;34.83;39.85
47104;BME280;32853;52.164;5.400;2023-09-07T15:28:13;101492.41;;;34.28;39.99
47104;BME280;32853;52.164;5.400;2023-09-07T15:30:38;101510.22;;;34.37;39.69
47104;BME280;32853;52.164;5.400;2023-09-07T15:33:04;101592.25;;;34.95;39.52
47104;BME280;32853;52.164;5.400;2023-09-07T15:35:29;101625.56;;;35.23;39.72
47104;BME280;32853;52.164;5.400;2023-09-07T15:37:56;101574.25;;;35.01;39.83
47104;BME280;32853;52.164;5.400;2023-09-07T15:40:21;101588.69;;;35.01;39.89
47104;BME280;32853;52.164;5.400;2023-09-07T15:43:03;101552.16;;;34.69;39.77
47104;BME280;32853;52.164;5.400;2023-09-07T15:45:37;101690.03;;;35.36;40.08
47104;BME280;32853;52.164;5.400;2023-09-07T15:48:19;101574.19;;;34.40;39.99
47104;BME280;32853;52.164;5.400;2023-09-07T15:50:44;101660.34;;;35.28;40.09
47104;BME280;32853;52.164;5.400;2023-09-07T15:53:10;101545.91;;;34.75;39.90
47104;BME280;32853;52.164;5.400;2023-09-07T15:55:44;101512.59;;;34.19;40.68
47104;BME280;32853;52.164;5.400;2023-09-07T15:58:20;101638.16;;;34.83;40.04
47104;BME280;32853;52.164;5.400;2023-09-07T16:00:45;101638.91;;;35.12;40.25
47104;BME280;32853;52.164;5.400;2023-09-07T16:03:10;101545.28;;;34.80;40.11
47104;BME280;32853;52.164;5.400;2023-09-07T16:05:38;101549.63;;;34.61;40.71
47104;BME280;32853;52.164;5.400;2023-09-07T16:08:03;101462.28;;;34.16;40.80
47104;BME280;32853;52.164;5.400;2023-09-07T16:10:30;101575.97;;;35.08;40.74
47104;BME280;32853;52.164;5.400;2023-09-07T16:12:56;101668.19;;;35.64;40.60
47104;BME280;32853;52.164;5.400;2023-09-07T16:15:21;101663.13;;;35.41;40.80
47104;BME280;32853;52.164;5.400;2023-09-07T16:17:48;101526.50;;;34.37;40.93
47104;BME280;32853;52.164;5.400;2023-09-07T16:20:15;101641.06;;;35.23;40.50
47104;BME280;32853;52.164;5.400;2023-09-07T16:22:40;101490.50;;;34.63;40.97
47104;BME280;32853;52.164;5.400;2023-09-07T16:25:06;101563.53;;;34.86;40.63
47104;BME280;32853;52.164;5.400;2023-09-07T16:27:31;101526.66;;;34.63;41.16
47104;BME280;32853;52.164;5.400;2023-09-07T16:30:02;101539.44;;;34.76;40.87
47104;BME280;32853;52.164;5.400;2023-09-07T16:32:28;101517.63;;;34.56;41.44
47104;BME280;32853;52.164;5.400;2023-09-07T16:34:53;101614.44;;;35.05;41.34
47104;BME280;32853;52.164;5.400;2023-09-07T16:37:19;101598.00;;;34.85;41.30
47104;BME280;32853;52.164;5.400;2023-09-07T16:39:50;101564.06;;;34.33;41.93
47104;BME280;32853;52.164;5.400;2023-09-07T16:42:17;101613.66;;;34.42;43.01
47104;BME280;32853;52.164;5.400;2023-09-07T16:44:42;101663.22;;;34.23;43.23
47104;BME280;32853;52.164;5.400;2023-09-07T16:47:08;101553.22;;;33.56;43.21
47104;BME280;32853;52.164;5.400;2023-09-07T16:49:33;101665.81;;;34.09;43.78
47104;BME280;32853;52.164;5.400;2023-09-07T16:51:58;101659.03;;;34.20;43.81
47104;BME280;32853;52.164;5.400;2023-09-07T16:54:24;101651.50;;;33.94;44.10
47104;BME280;32853;52.164;5.400;2023-09-07T16:56:49;101445.56;;;32.71;44.20
47104;BME280;32853;52.164;5.400;2023-09-07T16:59:14;101650.88;;;33.77;44.54
47104;BME280;32853;52.164;5.400;2023-09-07T17:01:41;101639.38;;;33.75;45.27
47104;BME280;32853;52.164;5.400;2023-09-07T17:04:06;101596.94;;;33.46;44.88
47104;BME280;32853;52.164;5.400;2023-09-07T17:06:32;101396.94;;;31.97;45.55
47104;BME280;32853;52.164;5.400;2023-09-07T17:09:00;101647.34;;;33.05;46.83
47104;BME280;32853;52.164;5.400;2023-09-07T17:11:27;101644.06;;;33.09;46.85
47104;BME280;32853;52.164;5.400;2023-09-07T17:13:52;101593.53;;;32.87;47.32
47104;BME280;32853;52.164;5.400;2023-09-07T17:16:17;101644.28;;;33.44;47.16
47104;BME280;32853;52.164;5.400;2023-09-07T17:18:43;101621.44;;;33.17;47.24
47104;BME280;32853;52.164;5.400;2023-09-07T17:21:08;101670.66;;;33.35;47.53
47104;BME280;32853;52.164;5.400;2023-09-07T17:23:34;101607.53;;;32.76;48.05
47104;BME280;32853;52.164;5.400;2023-09-07T17:26:02;101581.22;;;32.84;48.21
47104;BME280;32853;52.164;5.400;2023-09-07T17:28:29;101656.72;;;33.23;48.38
47104;BME280;32853;52.164;5.400;2023-09-07T17:30:54;101656.50;;;32.89;48.45
47104;BME280;32853;52.164;5.400;2023-09-07T17:33:20;101632.75;;;32.76;48.46
47104;BME280;32853;52.164;5.400;2023-09-07T17:35:49;101518.06;;;31.95;48.39
47104;BME280;32853;52.164;5.400;2023-09-07T17:38:19;101595.47;;;32.34;48.43
47104;BME280;32853;52.164;5.400;2023-09-07T17:40:44;101663.97;;;32.72;48.79
47104;BME280;32853;52.164;5.400;2023-09-07T17:43:09;101666.75;;;32.64;48.79
47104;BME280;32853;52.164;5.400;2023-09-07T17:45:35;101606.03;;;32.29;49.24
47104;BME280;32853;52.164;5.400;2023-09-07T17:48:09;101586.28;;;32.20;48.96
47104;BME280;32853;52.164;5.400;2023-09-07T17:50:35;101649.28;;;32.66;48.86
47104;BME280;32853;52.164;5.400;2023-09-07T17:53:03;101670.75;;;32.39;49.59
47104;BME280;32853;52.164;5.400;2023-09-07T17:55:32;101664.56;;;32.30;49.66
47104;BME280;32853;52.164;5.400;2023-09-07T17:57:57;101664.59;;;32.22;49.56
47104;BME280;32853;52.164;5.400;2023-09-07T18:00:26;101654.69;;;31.91;50.12
47104;BME280;32853;52.164;5.400;2023-09-07T18:02:58;101520.00;;;31.18;50.09
47104;BME280;32853;52.164;5.400;2023-09-07T18:05:24;101599.28;;;31.64;50.78
47104;BME280;32853;52.164;5.400;2023-09-07T18:07:49;101578.47;;;31.42;51.09
47104;BME280;32853;52.164;5.400;2023-09-07T18:10:14;101669.91;;;31.92;50.97
47104;BME280;32853;52.164;5.400;2023-09-07T18:12:40;101602.34;;;31.38;51.14
47104;BME280;32853;52.164;5.400;2023-09-07T18:15:06;101601.31;;;31.39;51.03
47104;BME280;32853;52.164;5.400;2023-09-07T18:17:31;101684.41;;;31.68;50.92
47104;BME280;32853;52.164;5.400;2023-09-07T18:20:04;101667.34;;;31.68;51.56
47104;BME280;32853;52.164;5.400;2023-09-07T18:22:30;101670.78;;;31.62;52.34
47104;BME280;32853;52.164;5.400;2023-09-07T18:24:59;101596.41;;;31.04;53.47
47104;BME280;32853;52.164;5.400;2023-09-07T18:27:24;101532.66;;;30.47;54.13
47104;BME280;32853;52.164;5.400;2023-09-07T18:30:19;101556.28;;;30.45;54.55
47104;BME280;32853;52.164;5.400;2023-09-07T18:32:53;101680.78;;;31.14;54.90
47104;BME280;32853;52.164;5.400;2023-09-07T18:35:18;101637.06;;;30.71;55.62
47104;BME280;32853;52.164;5.400;2023-09-07T18:37:46;101656.28;;;30.84;56.08
47104;BME280;32853;52.164;5.400;2023-09-07T18:40:18;101472.13;;;29.70;56.32
47104;BME280;32853;52.164;5.400;2023-09-07T18:42:43;101692.59;;;30.82;57.42
47104;BME280;32853;52.164;5.400;2023-09-07T18:45:09;101695.78;;;30.85;57.97
47104;BME280;32853;52.164;5.400;2023-09-07T18:47:36;101682.97;;;30.63;58.86
47104;BME280;32853;52.164;5.400;2023-09-07T18:50:03;101708.63;;;30.51;59.32
47104;BME280;32853;52.164;5.400;2023-09-07T18:52:29;101601.72;;;29.85;59.82
47104;BME280;32853;52.164;5.400;2023-09-07T18:55:00;101693.81;;;30.39;60.29
47104;BME280;32853;52.164;5.400;2023-09-07T18:57:38;101478.97;;;28.99;61.07
47104;BME280;32853;52.164;5.400;2023-09-07T19:00:09;101699.72;;;30.18;61.58
47104;BME280;32853;52.164;5.400;2023-09-07T19:02:35;101688.19;;;29.99;62.33
47104;BME280;32853;52.164;5.400;2023-09-07T19:05:04;101710.13;;;30.04;62.76
47104;BME280;32853;52.164;5.400;2023-09-07T19:07:39;101616.63;;;29.46;63.15
47104;BME280;32853;52.164;5.400;2023-09-07T19:10:05;101606.78;;;29.13;64.64
47104;BME280;32853;52.164;5.400;2023-09-07T19:12:31;101586.03;;;28.97;65.23
47104;BME280;32853;52.164;5.400;2023-09-07T19:14:57;101564.34;;;28.64;65.85
47104;BME280;32853;52.164;5.400;2023-09-07T19:17:23;101671.16;;;29.32;66.52
47104;BME280;32853;52.164;5.400;2023-09-07T19:19:50;101578.47;;;28.67;67.79
47104;BME280;32853;52.164;5.400;2023-09-07T19:22:18;101649.25;;;29.19;67.58
47104;BME280;32853;52.164;5.400;2023-09-07T19:24:50;101703.22;;;29.43;68.35
47104;BME280;32853;52.164;5.400;2023-09-07T19:27:15;101706.72;;;29.36;68.88
47104;BME280;32853;52.164;5.400;2023-09-07T19:29:40;101706.44;;;29.13;69.02
47104;BME280;32853;52.164;5.400;2023-09-07T19:32:10;101627.59;;;28.69;69.29
47104;BME280;32853;52.164;5.400;2023-09-07T19:34:35;101667.25;;;28.84;71.15
47104;BME280;32853;52.164;5.400;2023-09-07T19:37:03;101554.06;;;28.08;72.11
47104;BME280;32853;52.164;5.400;2023-09-07T19:39:54;101700.09;;;28.88;71.79
47104;BME280;32853;52.164;5.400;2023-09-07T19:42:31;101597.44;;;28.13;70.58
47104;BME280;32853;52.164;5.400;2023-09-07T19:44:57;101634.94;;;28.32;69.82
47104;BME280;32853;52.164;5.400;2023-09-07T19:47:30;101614.75;;;28.11;69.52
47104;BME280;32853;52.164;5.400;2023-09-07T19:49:55;101599.78;;;27.90;69.90
47104;BME280;32853;52.164;5.400;2023-09-07T19:52:22;101598.03;;;27.99;69.94
47104;BME280;32853;52.164;5.400;2023-09-07T19:54:54;101584.16;;;27.86;69.93
47104;BME280;32853;52.164;5.400;2023-09-07T19:57:19;101570.63;;;27.77;69.38
47104;BME280;32853;52.164;5.400;2023-09-07T19:59:49;101511.75;;;27.31;69.74
47104;BME280;32853;52.164;5.400;2023-09-07T20:02:24;101609.03;;;27.88;70.26
47104;BME280;32853;52.164;5.400;2023-09-07T20:04:50;101717.81;;;28.29;71.31
47104;BME280;32853;52.164;5.400;2023-09-07T20:07:17;101648.28;;;27.98;71.17
47104;BME280;32853;52.164;5.400;2023-09-07T20:10:02;101698.28;;;28.27;71.39
47104;BME280;32853;52.164;5.400;2023-09-07T20:12:36;101711.66;;;28.19;72.07
47104;BME280;32853;52.164;5.400;2023-09-07T20:15:05;101544.19;;;27.19;72.57
47104;BME280;32853;52.164;5.400;2023-09-07T20:17:30;101625.69;;;27.73;72.51
47104;BME280;32853;52.164;5.400;2023-09-07T20:19:56;101544.50;;;27.16;73.33
47104;BME280;32853;52.164;5.400;2023-09-07T20:22:24;101703.13;;;28.05;72.79
47104;BME280;32853;52.164;5.400;2023-09-07T20:24:54;101670.84;;;27.70;73.80
47104;BME280;32853;52.164;5.400;2023-09-07T20:27:20;101720.03;;;27.98;73.71
47104;BME280;32853;52.164;5.400;2023-09-07T20:29:50;101701.59;;;27.85;74.91
47104;BME280;32853;52.164;5.400;2023-09-07T20:32:15;101703.19;;;27.78;74.77
47104;BME280;32853;52.164;5.400;2023-09-07T20:34:41;101630.31;;;27.36;74.86
47104;BME280;32853;52.164;5.400;2023-09-07T20:37:11;101598.75;;;27.20;74.82
47104;BME280;32853;52.164;5.400;2023-09-07T20:39:37;101691.41;;;27.61;75.12
47104;BME280;32853;52.164;5.400;2023-09-07T20:42:09;101684.47;;;27.59;75.60
47104;BME280;32853;52.164;5.400;2023-09-07T20:44:48;101704.53;;;27.37;76.40
47104;BME280;32853;52.164;5.400;2023-09-07T20:47:14;101693.56;;;27.30;77.66
47104;BME280;32853;52.164;5.400;2023-09-07T20:49:40;101494.53;;;26.14;77.04
47104;BME280;32853;52.164;5.400;2023-09-07T20:55:26;101693.44;;;27.22;78.24
47104;BME280;32853;52.164;5.400;2023-09-07T20:58:13;101688.25;;;27.11;78.31
47104;BME280;32853;52.164;5.400;2023-09-07T21:00:54;101691.94;;;27.10;78.78
47104;BME280;32853;52.164;5.400;2023-09-07T21:03:35;101696.59;;;27.17;78.43
47104;BME280;32853;52.164;5.400;2023-09-07T21:06:31;101687.97;;;27.14;78.30
47104;BME280;32853;52.164;5.400;2023-09-07T21:09:20;101440.75;;;25.59;78.03
47104;BME280;32853;52.164;5.400;2023-09-07T21:12:19;101608.06;;;26.61;78.91
47104;BME280;32853;52.164;5.400;2023-09-07T21:15:21;101681.94;;;27.02;78.76
47104;BME280;32853;52.164;5.400;2023-09-07T21:21:22;101543.41;;;25.98;79.95
47104;BME280;32853;52.164;5.400;2023-09-07T21:24:15;101453.22;;;25.40;80.64
47104;BME280;32853;52.164;5.400;2023-09-07T21:30:37;101631.13;;;26.44;80.88
47104;BME280;32853;52.164;5.400;2023-09-07T21:33:20;101677.22;;;26.67;80.68
47104;BME280;32853;52.164;5.400;2023-09-07T21:35:54;101688.13;;;26.56;81.64
47104;BME280;32853;52.164;5.400;2023-09-07T21:38:28;101685.88;;;26.51;82.40
47104;BME280;32853;52.164;5.400;2023-09-07T21:41:02;101690.53;;;26.49;82.77
47104;BME280;32853;52.164;5.400;2023-09-07T21:43:32;101692.38;;;26.49;82.22
47104;BME280;32853;52.164;5.400;2023-09-07T21:46:19;101689.56;;;26.41;82.57
47104;BME280;32853;52.164;5.400;2023-09-07T21:48:53;101685.19;;;26.30;81.89
47104;BME280;32853;52.164;5.400;2023-09-07T21:51:22;101693.22;;;26.20;82.56
47104;BME280;32853;52.164;5.400;2023-09-07T21:54:01;101443.41;;;24.72;81.18
47104;BME280;32853;52.164;5.400;2023-09-07T21:56:31;101619.69;;;25.55;82.63
47104;BME280;32853;52.164;5.400;2023-09-07T21:58:57;101589.34;;;25.45;83.25
47104;BME280;32853;52.164;5.400;2023-09-07T22:01:23;101404.84;;;24.24;82.81
47104;BME280;32853;52.164;5.400;2023-09-07T22:03:48;101398.78;;;24.22;83.00
47104;BME280;32853;52.164;5.400;2023-09-07T22:06:21;101552.94;;;25.13;82.47
47104;BME280;32853;52.164;5.400;2023-09-07T22:08:46;101680.78;;;25.81;83.11
47104;BME280;32853;52.164;5.400;2023-09-07T22:11:26;101636.72;;;25.44;82.48
47104;BME280;32853;52.164;5.400;2023-09-07T22:14:01;101687.22;;;25.59;85.20
47104;BME280;32853;52.164;5.400;2023-09-07T22:16:41;101669.28;;;25.49;85.36
47104;BME280;32853;52.164;5.400;2023-09-07T22:19:08;101520.22;;;24.50;85.51
47104;BME280;32853;52.164;5.400;2023-09-07T22:21:40;101406.69;;;23.93;84.90
47104;BME280;32853;52.164;5.400;2023-09-07T22:24:06;101614.00;;;25.19;84.54
47104;BME280;32853;52.164;5.400;2023-09-07T22:26:36;101484.28;;;24.13;85.56
47104;BME280;32853;52.164;5.400;2023-09-07T22:29:19;101401.97;;;23.76;86.24
47104;BME280;32853;52.164;5.400;2023-09-07T22:31:47;101386.59;;;23.68;86.72
47104;BME280;32853;52.164;5.400;2023-09-07T22:34:12;101403.09;;;23.73;87.39
47104;BME280;32853;52.164;5.400;2023-09-07T22:36:38;101386.66;;;23.57;86.97
47104;BME280;32853;52.164;5.400;2023-09-07T22:39:06;101401.06;;;23.66;88.16
47104;BME280;32853;52.164;5.400;2023-09-07T22:41:31;101682.88;;;25.17;88.15
47104;BME280;32853;52.164;5.400;2023-09-07T22:43:57;101386.34;;;23.51;87.91
47104;BME280;32853;52.164;5.400;2023-09-07T22:46:25;101372.75;;;23.33;87.98
47104;BME280;32853;52.164;5.400;2023-09-07T22:48:50;101483.66;;;23.99;87.90
47104;BME280;32853;52.164;5.400;2023-09-07T22:51:16;101511.06;;;24.01;88.21
47104;BME280;32853;52.164;5.400;2023-09-07T22:53:41;101497.28;;;23.96;88.33
47104;BME280;32853;52.164;5.400;2023-09-07T22:56:06;101362.06;;;23.12;87.88
47104;BME280;32853;52.164;5.400;2023-09-07T22:58:34;101402.94;;;23.33;87.99
47104;BME280;32853;52.164;5.400;2023-09-07T23:01:01;101537.72;;;24.13;88.46
47104;BME280;32853;52.164;5.400;2023-09-07T23:03:26;101618.63;;;24.56;88.38
47104;BME280;32853;52.164;5.400;2023-09-07T23:05:52;101518.81;;;24.04;88.26
47104;BME280;32853;52.164;5.400;2023-09-07T23:08:17;101560.16;;;24.42;88.79
47104;BME280;32853;52.164;5.400;2023-09-07T23:10:43;101368.72;;;23.17;89.42
47104;BME280;32853;52.164;5.400;2023-09-07T23:13:08;101485.56;;;23.88;89.19
47104;BME280;32853;52.164;5.400;2023-09-07T23:15:34;101330.56;;;22.85;88.20
47104;BME280;32853;52.164;5.400;2023-09-07T23:18:00;101581.72;;;24.29;88.84
47104;BME280;32853;52.164;5.400;2023-09-07T23:20:27;101581.22;;;24.36;89.39
47104;BME280;32853;52.164;5.400;2023-09-07T23:22:52;101510.09;;;23.82;89.64
47104;BME280;32853;52.164;5.400;2023-09-07T23:25:18;101400.13;;;23.14;90.05
47104;BME280;32853;52.164;5.400;2023-09-07T23:27:44;101596.59;;;24.22;90.91
47104;BME280;32853;52.164;5.400;2023-09-07T23:30:15;101546.47;;;23.73;91.09
47104;BME280;32853;52.164;5.400;2023-09-07T23:32:55;101586.09;;;24.10;91.52
47104;BME280;32853;52.164;5.400;2023-09-07T23:35:21;101398.09;;;22.74;91.00
47104;BME280;32853;52.164;5.400;2023-09-07T23:37:53;101353.31;;;22.46;93.05
47104;BME280;32853;52.164;5.400;2023-09-07T23:40:22;101487.44;;;23.23;91.15
47104;BME280;32853;52.164;5.400;2023-09-07T23:42:51;101484.25;;;23.29;92.95
47104;BME280;32853;52.164;5.400;2023-09-07T23:45:25;101499.97;;;23.43;91.68
47104;BME280;32853;52.164;5.400;2023-09-07T23:47:54;101645.94;;;24.18;93.17
47104;BME280;32853;52.164;5.400;2023-09-07T23:50:44;101648.50;;;24.20;93.62
47104;BME280;32853;52.164;5.400;2023-09-07T23:53:09;101395.25;;;22.44;95.33
47104;BME280;32853;52.164;5.400;2023-09-07T23:55:44;101389.41;;;22.50;94.04
47104;BME280;32853;52.164;5.400;2023-09-07T23:58:12;101652.28;;;24.17;94.13
